Portada
METAR-TAF:

METAR-TAF

Aeroports :

Telfer, Austràlia

latitud: 21-42-54S, longitud: 122-13-43E, altitud: 296 m

Observació

L'informe es va fer fa 45 minuts, a les 10:00 UTC
Vent 6 kt del Est/Sud-Est
Temperatura 32°C
Humitat 10%
Pressió 1012 hPa
Visibilitat 10 km o més

METAR: YTEF 251000Z AUTO 12006KT 9999 // NCD 32/M03 Q1012

Hora: 18:45 (10:45 UTC)


TAF: manca

Observacions i pronòstics meteorològics de més de 4000 aeroports (METAR i TAF).

Les estacions disponibles són els punts grocs i vermells al mapa.

Posi el ratolí al punt desitjat per veure el nom de l'estació.

Feu clic per veure les observacions i els pronòstics meteorològics.

Per canviar el mapa: feu clic els botons verds amb una creu de color negre per apropar; al botó verd amb un guió per allunyar la imatge; o en les fletxes verdes per a mapes adjacents.


METAR-TAF: